createdAt,value
2023-05-16T00:01:46.475Z,3.30
2023-05-16T00:04:13.571Z,3.20
2023-05-16T00:06:40.299Z,3.35
2023-05-16T00:09:07.043Z,4.05
2023-05-16T00:11:33.709Z,3.20
2023-05-16T00:14:01.484Z,4.20
2023-05-16T00:16:30.334Z,4.18
2023-05-16T00:19:00.903Z,3.70
2023-05-16T00:21:27.968Z,3.93
2023-05-16T00:23:54.620Z,3.47
2023-05-16T00:26:21.834Z,3.65
2023-05-16T00:28:48.615Z,5.82
2023-05-16T00:31:15.503Z,2.72
2023-05-16T00:33:42.168Z,2.45
2023-05-16T00:36:08.861Z,3.40
2023-05-16T00:38:35.524Z,2.72
2023-05-16T00:41:02.065Z,3.08
2023-05-16T00:43:28.936Z,4.47
2023-05-16T00:45:57.923Z,4.57
2023-05-16T00:48:25.107Z,3.25
2023-05-16T00:50:53.246Z,3.67
2023-05-16T00:53:23.189Z,3.40
2023-05-16T00:55:49.872Z,3.03
2023-05-16T00:58:17.982Z,3.05
2023-05-16T01:00:48.682Z,3.38
2023-05-16T01:03:16.001Z,3.53
2023-05-16T01:05:42.833Z,4.00
2023-05-16T01:08:10.161Z,3.28
2023-05-16T01:10:47.327Z,3.25
2023-05-16T01:13:33.129Z,3.35
2023-05-16T01:16:13.124Z,3.55
2023-05-16T01:18:55.331Z,5.20
2023-05-16T01:21:40.950Z,4.10
2023-05-16T01:24:22.802Z,3.17
2023-05-16T01:26:51.717Z,3.42
2023-05-16T01:29:18.906Z,3.78
2023-05-16T01:31:45.636Z,3.88
2023-05-16T01:34:12.580Z,3.50
2023-05-16T01:36:48.092Z,3.35
2023-05-16T01:39:27.085Z,3.60
2023-05-16T01:42:04.700Z,3.80
2023-05-16T01:44:50.059Z,2.78
2023-05-16T01:47:19.488Z,4.30
2023-05-16T01:50:13.685Z,4.25
2023-05-16T01:53:03.157Z,4.28
2023-05-16T01:55:32.232Z,3.45
2023-05-16T01:57:59.621Z,3.95
2023-05-16T02:00:26.723Z,3.88
2023-05-16T02:02:53.280Z,3.75
2023-05-16T02:05:19.928Z,3.35
2023-05-16T02:07:47.037Z,6.65
2023-05-16T02:10:14.063Z,3.45
2023-05-16T02:12:40.729Z,3.92
2023-05-16T02:15:08.043Z,3.92
2023-05-16T02:17:34.634Z,2.97
2023-05-16T02:20:06.729Z,3.33
2023-05-16T02:22:33.925Z,4.68
2023-05-16T02:25:03.298Z,2.97
2023-05-16T02:27:30.110Z,3.70
2023-05-16T02:29:56.760Z,5.38
2023-05-16T02:32:23.502Z,5.95
2023-05-16T02:34:52.063Z,3.47
2023-05-16T02:37:19.079Z,4.97
2023-05-16T02:39:45.873Z,2.58
2023-05-16T02:42:12.540Z,3.35
2023-05-16T02:44:39.089Z,3.05
2023-05-16T02:47:05.683Z,4.28
2023-05-16T02:49:32.529Z,3.60
2023-05-16T02:52:00.311Z,5.95
2023-05-16T02:54:26.887Z,4.47
2023-05-16T02:56:53.796Z,3.92
2023-05-16T02:59:20.560Z,4.32
2023-05-16T03:01:47.327Z,4.47
2023-05-16T03:04:14.191Z,3.50
2023-05-16T03:06:41.230Z,5.10
2023-05-16T03:09:07.862Z,3.55
2023-05-16T03:11:35.800Z,4.68
2023-05-16T03:14:03.441Z,4.22
2023-05-16T03:16:30.757Z,5.10
2023-05-16T03:18:57.384Z,3.70
2023-05-16T03:21:24.231Z,4.95
2023-05-16T03:23:50.791Z,4.47
2023-05-16T03:26:17.421Z,3.88
2023-05-16T03:28:44.101Z,5.72
2023-05-16T03:31:10.946Z,3.95
2023-05-16T03:33:37.618Z,4.03
2023-05-16T03:36:05.433Z,5.32
2023-05-16T03:38:32.506Z,4.25
2023-05-16T03:40:59.100Z,4.95
2023-05-16T03:43:25.674Z,3.45
2023-05-16T03:45:52.356Z,3.75
2023-05-16T03:48:19.456Z,3.55
2023-05-16T03:50:45.992Z,4.47
2023-05-16T03:53:12.663Z,5.50
2023-05-16T03:55:39.431Z,4.60
2023-05-16T03:58:06.361Z,3.97
2023-05-16T04:00:34.524Z,4.32
2023-05-16T04:03:01.160Z,3.58
2023-05-16T04:05:28.582Z,5.95
2023-05-16T04:07:55.410Z,3.47
2023-05-16T04:10:22.449Z,3.50
2023-05-16T04:12:49.139Z,3.63
2023-05-16T04:15:15.700Z,3.03
2023-05-16T04:17:42.346Z,6.05
2023-05-16T04:20:09.344Z,4.68
2023-05-16T04:22:35.976Z,3.15
2023-05-16T04:25:02.555Z,4.10
2023-05-16T04:27:30.743Z,3.67
2023-05-16T04:29:57.388Z,5.20
2023-05-16T04:32:23.987Z,4.63
2023-05-16T04:34:53.448Z,4.35
2023-05-16T04:37:20.776Z,3.95
2023-05-16T04:39:47.724Z,4.25
2023-05-16T04:42:14.262Z,4.82
2023-05-16T04:44:42.248Z,7.53
2023-05-16T04:47:09.252Z,6.38
2023-05-16T04:49:35.851Z,7.57
2023-05-16T04:52:02.804Z,5.60
2023-05-16T04:54:29.500Z,6.30
2023-05-16T04:56:57.276Z,7.88
2023-05-16T04:59:24.397Z,5.47
2023-05-16T05:01:51.174Z,6.28
2023-05-16T05:04:17.805Z,7.38
2023-05-16T05:06:44.365Z,5.93
2023-05-16T05:09:11.051Z,5.72
2023-05-16T05:11:37.597Z,7.30
2023-05-16T05:14:04.445Z,8.20
2023-05-16T05:16:31.394Z,8.07
2023-05-16T05:18:58.223Z,6.38
2023-05-16T05:21:25.530Z,6.03
2023-05-16T05:23:52.143Z,8.02
2023-05-16T05:26:18.932Z,7.43
2023-05-16T05:28:53.825Z,7.22
2023-05-16T05:31:24.675Z,11.75
2023-05-16T05:33:51.269Z,7.03
2023-05-16T05:36:17.951Z,6.38
2023-05-16T05:38:44.506Z,6.93
2023-05-16T05:41:11.936Z,8.05
2023-05-16T05:43:38.836Z,7.28
2023-05-16T05:46:05.922Z,7.00
2023-05-16T05:48:32.938Z,6.38
2023-05-16T05:50:59.507Z,6.95
2023-05-16T05:53:26.365Z,7.10
2023-05-16T05:55:53.037Z,7.25
2023-05-16T05:58:21.301Z,6.40
2023-05-16T06:00:47.938Z,7.40
2023-05-16T06:03:14.671Z,8.40
2023-05-16T06:05:41.973Z,8.18
2023-05-16T06:08:08.643Z,7.63
2023-05-16T06:10:35.478Z,6.45
2023-05-16T06:13:02.046Z,7.68
2023-05-16T06:15:28.937Z,6.55
2023-05-16T06:17:55.793Z,6.63
2023-05-16T06:20:22.434Z,11.45
2023-05-16T06:22:49.454Z,8.68
2023-05-16T06:25:16.236Z,8.13
2023-05-16T06:27:43.035Z,7.68
2023-05-16T06:30:09.970Z,7.45
2023-05-16T06:32:36.914Z,10.27
2023-05-16T06:35:03.915Z,9.60
2023-05-16T06:37:30.460Z,8.48
2023-05-16T06:39:57.257Z,9.43
2023-05-16T06:42:24.006Z,7.18
2023-05-16T06:44:51.273Z,8.73
2023-05-16T06:47:18.079Z,7.15
2023-05-16T06:49:45.023Z,9.07
2023-05-16T06:52:11.790Z,8.93
2023-05-16T06:54:38.489Z,11.63
2023-05-16T06:57:05.479Z,7.85
2023-05-16T06:59:32.608Z,9.90
2023-05-16T07:01:59.306Z,8.10
2023-05-16T07:04:25.937Z,7.72
2023-05-16T07:06:53.201Z,8.73
2023-05-16T07:09:21.187Z,7.65
2023-05-16T07:11:47.853Z,8.25
2023-05-16T07:14:14.505Z,8.65
2023-05-16T07:16:41.255Z,7.63
2023-05-16T07:19:08.579Z,7.25
2023-05-16T07:21:35.435Z,7.50
2023-05-16T07:24:02.092Z,9.82
2023-05-16T07:26:28.813Z,6.72
2023-05-16T07:28:55.789Z,7.20
2023-05-16T07:31:22.714Z,8.65
2023-05-16T07:33:49.388Z,10.00
2023-05-16T07:36:17.569Z,7.28
2023-05-16T07:38:45.148Z,7.65
2023-05-16T07:41:12.159Z,10.00
2023-05-16T07:43:38.861Z,9.48
2023-05-16T07:46:05.800Z,7.50
2023-05-16T07:48:32.490Z,6.85
2023-05-16T07:51:00.516Z,8.85
2023-05-16T07:53:27.077Z,8.35
2023-05-16T07:55:53.827Z,7.20
2023-05-16T07:58:20.423Z,9.00
2023-05-16T08:00:47.128Z,8.32
2023-05-16T08:03:14.031Z,9.45
2023-05-16T08:05:40.825Z,7.30
2023-05-16T08:08:07.766Z,8.65
2023-05-16T08:10:34.439Z,10.48
2023-05-16T08:13:01.033Z,8.75
2023-05-16T08:15:28.728Z,7.28
2023-05-16T08:17:58.821Z,10.10
2023-05-16T08:20:26.420Z,9.50
2023-05-16T08:22:53.687Z,10.90
2023-05-16T08:25:20.522Z,11.85
2023-05-16T08:27:49.874Z,6.78
2023-05-16T08:30:17.165Z,9.98
2023-05-16T08:32:44.070Z,11.80
2023-05-16T08:35:11.440Z,10.13
2023-05-16T08:37:39.106Z,6.93
2023-05-16T08:40:10.628Z,9.02
2023-05-16T08:42:38.001Z,9.05
2023-05-16T08:45:05.836Z,10.10
2023-05-16T08:47:33.219Z,6.82
2023-05-16T08:50:02.774Z,8.30
2023-05-16T08:52:31.708Z,10.23
2023-05-16T08:55:11.323Z,10.77
2023-05-16T08:57:39.270Z,10.80
2023-05-16T09:00:11.927Z,11.52
2023-05-16T09:02:43.315Z,11.70
2023-05-16T09:05:14.885Z,8.68
2023-05-16T09:10:09.460Z,9.02
2023-05-16T09:12:36.939Z,13.77
2023-05-16T09:15:05.699Z,10.13
2023-05-16T09:17:42.388Z,10.25
2023-05-16T09:20:20.164Z,10.82
2023-05-16T09:22:58.582Z,11.35
2023-05-16T09:25:31.371Z,10.82
2023-05-16T09:28:01.206Z,13.45
2023-05-16T09:30:33.711Z,11.25
2023-05-16T09:33:00.704Z,13.07
2023-05-16T09:37:57.405Z,12.30
2023-05-16T09:40:24.221Z,12.65
2023-05-16T09:43:05.284Z,15.45
2023-05-16T09:45:34.087Z,11.30
2023-05-16T09:48:09.224Z,11.73
2023-05-16T09:50:37.371Z,12.95
2023-05-16T09:53:05.073Z,12.43
2023-05-16T09:55:32.593Z,10.63
2023-05-16T09:57:59.182Z,12.30
2023-05-16T10:00:31.341Z,10.63
2023-05-16T10:03:00.988Z,11.98
2023-05-16T10:05:31.229Z,11.70
2023-05-16T10:08:00.596Z,11.73
2023-05-16T10:10:28.501Z,10.73
2023-05-16T10:13:00.740Z,12.82
2023-05-16T10:15:29.390Z,11.40
2023-05-16T10:17:59.967Z,12.23
2023-05-16T10:20:27.603Z,10.98
2023-05-16T10:22:56.831Z,11.43
2023-05-16T10:25:23.457Z,15.38
2023-05-16T10:27:51.049Z,14.88
2023-05-16T10:30:18.194Z,13.18
2023-05-16T10:32:46.638Z,11.65
2023-05-16T10:35:16.320Z,11.45
2023-05-16T10:37:44.533Z,9.77
2023-05-16T10:40:12.350Z,14.60
2023-05-16T10:42:39.008Z,13.25
2023-05-16T10:45:21.269Z,14.50
2023-05-16T10:48:01.529Z,11.68
2023-05-16T10:50:46.622Z,12.35
2023-05-16T10:53:37.576Z,12.77
2023-05-16T10:56:04.274Z,11.93
2023-05-16T10:58:35.070Z,11.05
2023-05-16T11:01:30.188Z,13.88
2023-05-16T11:03:56.912Z,10.80
2023-05-16T11:06:25.205Z,13.30
2023-05-16T11:09:11.359Z,12.40
2023-05-16T11:11:54.060Z,11.40
2023-05-16T11:14:37.843Z,10.07
2023-05-16T11:17:12.049Z,11.65
2023-05-16T11:19:46.048Z,13.00
2023-05-16T11:22:17.727Z,8.98
2023-05-16T11:25:07.341Z,13.15
2023-05-16T11:27:35.099Z,14.00
2023-05-16T11:30:11.347Z,13.18
2023-05-16T11:32:40.164Z,14.23
2023-05-16T11:35:11.065Z,12.70
2023-05-16T11:37:39.707Z,12.32
2023-05-16T11:40:09.344Z,13.52
2023-05-16T11:42:38.196Z,12.00
2023-05-16T11:45:08.149Z,12.63
2023-05-16T11:47:37.895Z,11.48
2023-05-16T11:50:07.845Z,11.43
2023-05-16T11:52:34.612Z,10.98
2023-05-16T11:55:01.547Z,11.43
2023-05-16T11:57:28.343Z,8.90
2023-05-16T11:59:54.950Z,10.82
2023-05-16T12:02:21.903Z,11.00
2023-05-16T12:04:50.574Z,8.50
2023-05-16T12:07:17.547Z,10.30
2023-05-16T12:09:53.483Z,10.77
2023-05-16T12:12:23.283Z,10.73
2023-05-16T12:14:50.230Z,10.60
2023-05-16T12:17:16.985Z,8.95
2023-05-16T12:19:43.919Z,10.02
2023-05-16T12:22:18.416Z,9.35
2023-05-16T12:24:45.228Z,9.50
2023-05-16T12:27:12.569Z,12.05
2023-05-16T12:29:40.582Z,9.00
2023-05-16T12:32:08.254Z,9.77
2023-05-16T12:34:34.952Z,10.15
2023-05-16T12:37:02.003Z,9.85
2023-05-16T12:39:37.619Z,12.23
2023-05-16T12:42:09.552Z,9.32
2023-05-16T12:44:36.208Z,7.95
2023-05-16T12:47:03.131Z,9.52
2023-05-16T12:49:29.751Z,9.10
2023-05-16T12:51:58.548Z,7.80
2023-05-16T12:54:25.590Z,11.18
2023-05-16T12:56:52.472Z,11.80
2023-05-16T12:59:20.191Z,11.45
2023-05-16T13:01:47.071Z,11.57
2023-05-16T13:04:19.853Z,10.18
2023-05-16T13:06:58.512Z,9.38
2023-05-16T13:09:30.034Z,8.77
2023-05-16T13:11:59.716Z,9.60
2023-05-16T13:14:26.712Z,9.00
2023-05-16T13:16:53.424Z,10.50
2023-05-16T13:19:20.245Z,9.25
2023-05-16T13:21:47.254Z,9.82
2023-05-16T13:24:13.816Z,10.02
2023-05-16T13:26:41.277Z,14.63
2023-05-16T13:29:09.867Z,10.82
2023-05-16T13:31:36.494Z,9.00
2023-05-16T13:34:03.422Z,11.68
2023-05-16T13:36:38.399Z,11.25
2023-05-16T13:39:16.717Z,11.85
2023-05-16T13:41:43.317Z,10.43
2023-05-16T13:44:10.306Z,11.55
2023-05-16T13:46:37.603Z,11.15
2023-05-16T13:49:04.520Z,5.30
2023-05-16T13:51:31.839Z,5.53
2023-05-16T13:53:58.755Z,3.75
2023-05-16T13:56:26.010Z,5.85
2023-05-16T13:59:02.035Z,13.40
2023-05-16T14:01:31.514Z,6.25
2023-05-16T14:03:58.633Z,5.15
2023-05-16T14:06:25.319Z,4.75
2023-05-16T14:08:52.116Z,4.35
2023-05-16T14:11:19.893Z,4.75
2023-05-16T14:13:46.716Z,4.50
2023-05-16T14:16:13.454Z,5.40
2023-05-16T14:18:40.110Z,3.90
2023-05-16T14:21:06.862Z,5.13
2023-05-16T14:23:36.225Z,4.57
2023-05-16T14:26:02.887Z,5.80
2023-05-16T14:28:29.507Z,4.60
2023-05-16T14:30:56.270Z,4.70
2023-05-16T14:33:22.960Z,5.35
2023-05-16T14:35:50.241Z,7.07
2023-05-16T14:38:16.878Z,6.35
2023-05-16T14:40:43.615Z,4.93
2023-05-16T14:43:10.367Z,5.63
2023-05-16T14:45:38.136Z,7.07
2023-05-16T14:48:08.447Z,5.90
2023-05-16T14:50:35.476Z,6.63
2023-05-16T14:53:02.107Z,7.00
2023-05-16T14:55:29.045Z,7.03
2023-05-16T14:57:59.642Z,7.60
2023-05-16T15:00:27.034Z,6.30
2023-05-16T15:02:54.013Z,5.65
2023-05-16T15:05:20.904Z,7.50
2023-05-16T15:07:47.755Z,5.57
2023-05-16T15:10:14.404Z,5.93
2023-05-16T15:12:43.217Z,4.55
2023-05-16T15:15:16.201Z,5.32
2023-05-16T15:17:43.292Z,5.47
2023-05-16T15:20:11.573Z,5.47
2023-05-16T15:22:41.613Z,6.55
2023-05-16T15:25:09.156Z,7.22
2023-05-16T15:27:35.923Z,6.65
2023-05-16T15:30:02.667Z,9.05
2023-05-16T15:32:29.536Z,6.20
2023-05-16T15:34:57.607Z,5.78
2023-05-16T15:37:24.213Z,5.70
2023-05-16T15:39:51.071Z,4.95
2023-05-16T15:42:19.923Z,6.05
2023-05-16T15:44:46.617Z,5.93
2023-05-16T15:47:13.326Z,6.70
2023-05-16T15:49:40.131Z,6.55
2023-05-16T15:52:07.072Z,8.05
2023-05-16T15:54:33.732Z,4.80
2023-05-16T15:57:00.514Z,4.80
2023-05-16T15:59:27.383Z,7.72
2023-05-16T16:01:54.074Z,5.90
2023-05-16T16:04:23.448Z,5.35
2023-05-16T16:06:50.532Z,5.70
2023-05-16T16:09:17.779Z,6.35
2023-05-16T16:11:44.459Z,5.63
2023-05-16T16:14:11.311Z,4.88
2023-05-16T16:16:40.738Z,9.63
2023-05-16T16:19:08.631Z,5.95
2023-05-16T16:21:35.845Z,6.57
2023-05-16T16:24:02.474Z,7.53
2023-05-16T16:26:29.073Z,5.55
2023-05-16T16:28:57.916Z,5.13
2023-05-16T16:31:24.670Z,6.07
2023-05-16T16:33:51.386Z,6.20
2023-05-16T16:36:18.352Z,6.00
2023-05-16T16:38:44.960Z,5.85
2023-05-16T16:41:12.736Z,6.72
2023-05-16T16:43:40.082Z,6.35
2023-05-16T16:46:07.669Z,6.82
2023-05-16T16:48:35.103Z,6.55
2023-05-16T16:51:02.503Z,8.48
2023-05-16T16:53:29.974Z,7.47
2023-05-16T16:55:56.568Z,7.15
2023-05-16T16:58:23.285Z,10.73
2023-05-16T17:00:49.915Z,8.15
2023-05-16T17:03:17.238Z,6.88
2023-05-16T17:05:44.997Z,10.15
2023-05-16T17:08:12.172Z,9.20
2023-05-16T17:10:39.369Z,8.75
2023-05-16T17:13:10.278Z,7.88
2023-05-16T17:15:37.814Z,8.23
2023-05-16T17:18:07.322Z,15.68
2023-05-16T17:20:35.576Z,9.40
2023-05-16T17:23:03.146Z,9.93
2023-05-16T17:25:30.369Z,9.95
2023-05-16T17:27:57.286Z,9.88
2023-05-16T17:30:23.961Z,9.50
2023-05-16T17:32:50.606Z,10.82
2023-05-16T17:35:17.352Z,11.75
2023-05-16T17:37:44.115Z,11.60
2023-05-16T17:40:16.555Z,9.90
2023-05-16T17:42:44.331Z,10.20
2023-05-16T17:45:13.024Z,10.95
2023-05-16T17:47:39.943Z,12.82
2023-05-16T17:50:09.784Z,10.75
2023-05-16T17:52:39.378Z,11.55
2023-05-16T17:55:09.824Z,12.45
2023-05-16T17:57:36.789Z,10.02
2023-05-16T18:00:07.745Z,12.43
2023-05-16T18:02:36.657Z,11.57
2023-05-16T18:05:05.331Z,9.07
2023-05-16T18:07:32.104Z,9.65
2023-05-16T18:09:58.969Z,11.32
2023-05-16T18:12:25.709Z,13.40
2023-05-16T18:14:53.113Z,12.18
2023-05-16T18:17:19.999Z,12.07
2023-05-16T18:19:47.254Z,10.82
2023-05-16T18:22:13.925Z,8.60
2023-05-16T18:24:40.994Z,11.73
2023-05-16T18:27:07.678Z,11.32
2023-05-16T18:29:34.463Z,11.02
2023-05-16T18:32:01.357Z,12.95
2023-05-16T18:34:28.078Z,10.07
2023-05-16T18:36:54.653Z,7.95
2023-05-16T18:39:21.379Z,12.98
2023-05-16T18:41:48.883Z,10.73
2023-05-16T18:44:18.143Z,5.85
2023-05-16T18:46:46.117Z,12.50
2023-05-16T18:49:16.462Z,6.78
2023-05-16T18:51:44.048Z,9.90
2023-05-16T18:54:10.657Z,8.35
2023-05-16T18:56:37.414Z,8.05
2023-05-16T18:59:04.066Z,6.22
2023-05-16T19:01:30.772Z,7.38
2023-05-16T19:03:57.539Z,9.43
2023-05-16T19:06:24.347Z,7.40
2023-05-16T19:08:51.052Z,10.60
2023-05-16T19:11:18.191Z,9.00
2023-05-16T19:13:45.962Z,9.80
2023-05-16T19:16:12.872Z,10.13
2023-05-16T19:18:39.668Z,9.45
2023-05-16T19:21:07.879Z,9.27
2023-05-16T19:23:34.670Z,7.00
2023-05-16T19:26:01.517Z,8.35
2023-05-16T19:28:28.280Z,9.15
2023-05-16T19:30:55.081Z,7.57
2023-05-16T19:33:21.826Z,7.53
2023-05-16T19:35:48.989Z,7.25
2023-05-16T19:38:15.904Z,6.25
2023-05-16T19:40:42.574Z,8.80
2023-05-16T19:43:09.182Z,8.98
2023-05-16T19:45:36.397Z,7.90
2023-05-16T19:48:03.533Z,10.45
2023-05-16T19:50:30.220Z,8.60
2023-05-16T19:52:56.789Z,6.65
2023-05-16T19:55:26.037Z,7.10
2023-05-16T19:57:52.966Z,6.65
2023-05-16T20:00:19.834Z,6.43
2023-05-16T20:02:47.074Z,6.88
2023-05-16T20:05:14.615Z,8.57
2023-05-16T20:07:41.378Z,8.93
2023-05-16T20:10:08.839Z,9.23
2023-05-16T20:12:35.665Z,8.13
2023-05-16T20:15:04.691Z,6.32
2023-05-16T20:17:31.433Z,5.93
2023-05-16T20:19:58.247Z,7.97
2023-05-16T20:22:25.147Z,8.73
2023-05-16T20:24:51.932Z,10.75
2023-05-16T20:27:18.827Z,7.47
2023-05-16T20:29:45.534Z,8.18
2023-05-16T20:32:12.285Z,7.45
2023-05-16T20:34:41.530Z,8.05
2023-05-16T20:37:08.389Z,6.95
2023-05-16T20:39:35.064Z,5.72
2023-05-16T20:42:01.827Z,6.35
2023-05-16T20:44:29.307Z,8.43
2023-05-16T20:46:55.990Z,6.63
2023-05-16T20:49:22.575Z,6.72
2023-05-16T20:51:49.353Z,5.75
2023-05-16T20:54:16.053Z,7.18
2023-05-16T20:56:42.680Z,6.38
2023-05-16T20:59:09.634Z,5.70
2023-05-16T21:01:36.258Z,5.70
2023-05-16T21:04:02.937Z,9.85
2023-05-16T21:06:29.690Z,8.95
2023-05-16T21:08:56.306Z,6.20
2023-05-16T21:11:23.029Z,3.97
2023-05-16T21:13:49.645Z,5.85
2023-05-16T21:16:16.341Z,5.32
2023-05-16T21:18:43.385Z,6.70
2023-05-16T21:21:10.081Z,6.70
2023-05-16T21:23:36.881Z,6.07
2023-05-16T21:26:03.684Z,4.25
2023-05-16T21:28:32.780Z,7.18
2023-05-16T21:31:01.553Z,5.40
2023-05-16T21:33:28.165Z,4.45
2023-05-16T21:35:55.205Z,5.85
2023-05-16T21:38:21.986Z,3.72
2023-05-16T21:40:48.787Z,4.90
2023-05-16T21:43:15.602Z,8.18
2023-05-16T21:45:42.419Z,3.90
2023-05-16T21:48:09.350Z,3.88
2023-05-16T21:50:36.207Z,4.78
2023-05-16T21:53:03.107Z,4.32
2023-05-16T21:55:29.868Z,5.38
2023-05-16T21:57:56.752Z,3.53
2023-05-16T22:00:23.552Z,5.90
2023-05-16T22:02:50.233Z,5.18
2023-05-16T22:05:19.360Z,4.22
2023-05-16T22:07:46.501Z,5.57
2023-05-16T22:10:14.869Z,3.13
2023-05-16T22:12:41.474Z,5.13
2023-05-16T22:15:08.542Z,3.45
2023-05-16T22:17:35.324Z,3.22
2023-05-16T22:20:04.767Z,4.72
2023-05-16T22:22:31.393Z,4.28
2023-05-16T22:24:58.016Z,3.33
2023-05-16T22:27:24.856Z,3.55
2023-05-16T22:29:51.687Z,5.22
2023-05-16T22:32:18.252Z,4.35
2023-05-16T22:34:44.961Z,3.20
2023-05-16T22:37:11.508Z,4.35
2023-05-16T22:39:38.113Z,6.40
2023-05-16T22:42:04.996Z,4.53
2023-05-16T22:44:31.649Z,2.65
2023-05-16T22:46:58.422Z,7.45
2023-05-16T22:49:25.044Z,3.13
2023-05-16T22:51:51.856Z,2.63
2023-05-16T22:54:18.557Z,3.05
2023-05-16T22:56:45.108Z,3.97
2023-05-16T22:59:11.743Z,3.38
2023-05-16T23:01:38.767Z,5.60
2023-05-16T23:04:06.049Z,3.55
2023-05-16T23:06:32.913Z,1.83
2023-05-16T23:09:04.054Z,4.38
2023-05-16T23:11:31.717Z,4.20
2023-05-16T23:13:58.348Z,2.95
2023-05-16T23:16:24.954Z,3.05
2023-05-16T23:18:51.726Z,4.38
2023-05-16T23:21:18.642Z,4.40
2023-05-16T23:23:45.265Z,4.80
2023-05-16T23:26:12.067Z,2.42
2023-05-16T23:28:38.656Z,3.08
2023-05-16T23:31:05.338Z,2.90
2023-05-16T23:33:31.985Z,3.65
2023-05-16T23:35:58.621Z,4.93
2023-05-16T23:38:25.872Z,4.15
2023-05-16T23:40:52.462Z,3.00
2023-05-16T23:43:19.245Z,5.82
2023-05-16T23:45:46.154Z,6.38
2023-05-16T23:48:12.826Z,7.35
2023-05-16T23:50:39.766Z,5.13
2023-05-16T23:53:06.555Z,2.65
2023-05-16T23:55:33.197Z,3.97
2023-05-16T23:57:59.771Z,2.65
